createdAt,value
2023-04-24T00:00:37.097Z,99.90
2023-04-24T00:03:04.153Z,99.90
2023-04-24T00:05:30.912Z,99.90
2023-04-24T00:07:59.849Z,99.90
2023-04-24T00:10:28.678Z,99.90
2023-04-24T00:12:55.417Z,99.90
2023-04-24T00:15:24.574Z,99.90
2023-04-24T00:17:51.862Z,99.90
2023-04-24T00:20:19.906Z,99.90
2023-04-24T00:22:46.553Z,99.90
2023-04-24T00:25:18.398Z,99.90
2023-04-24T00:27:45.097Z,99.90
2023-04-24T00:30:14.633Z,99.90
2023-04-24T00:32:41.406Z,99.90
2023-04-24T00:35:08.355Z,99.90
2023-04-24T00:37:39.528Z,99.90
2023-04-24T00:40:11.582Z,99.90
2023-04-24T00:45:06.478Z,99.90
2023-04-24T00:47:34.349Z,99.90
2023-04-24T00:50:07.618Z,99.90
2023-04-24T00:52:34.313Z,99.90
2023-04-24T00:55:01.198Z,99.90
2023-04-24T00:57:28.077Z,99.90
2023-04-24T00:59:55.010Z,99.90
2023-04-24T01:02:24.210Z,99.90
2023-04-24T01:04:54.168Z,99.90
2023-04-24T01:07:24.212Z,99.90
2023-04-24T01:09:53.793Z,99.90
2023-04-24T01:12:21.318Z,99.90
2023-04-24T01:14:50.431Z,99.90
2023-04-24T01:17:17.251Z,99.90
2023-04-24T01:19:45.948Z,99.90
2023-04-24T01:22:18.094Z,99.90
2023-04-24T01:24:45.041Z,99.90
2023-04-24T01:27:12.679Z,99.90
2023-04-24T01:29:39.989Z,99.90
2023-04-24T01:32:07.545Z,99.90
2023-04-24T01:34:35.025Z,99.90
2023-04-24T01:37:04.334Z,99.90
2023-04-24T01:39:34.452Z,99.90
2023-04-24T01:42:03.889Z,99.90
2023-04-24T01:44:34.330Z,99.90
2023-04-24T01:47:02.257Z,99.90
2023-04-24T01:49:29.056Z,99.90
2023-04-24T01:51:55.736Z,99.90
2023-04-24T01:54:24.593Z,99.90
2023-04-24T01:56:51.422Z,99.90
2023-04-24T01:59:20.879Z,99.90
2023-04-24T02:04:17.114Z,99.90
2023-04-24T02:06:43.938Z,99.90
2023-04-24T02:09:15.263Z,99.90
2023-04-24T02:11:42.103Z,99.90
2023-04-24T02:14:11.040Z,99.90
2023-04-24T02:16:37.801Z,99.90
2023-04-24T02:19:05.033Z,99.90
2023-04-24T02:21:34.543Z,99.90
2023-04-24T02:24:05.876Z,99.90
2023-04-24T02:26:32.795Z,99.90
2023-04-24T02:28:59.552Z,99.90
2023-04-24T02:31:26.439Z,99.90
2023-04-24T02:33:55.479Z,99.90
2023-04-24T02:36:24.805Z,99.90
2023-04-24T02:38:56.276Z,99.90
2023-04-24T02:41:22.994Z,99.90
2023-04-24T02:43:49.662Z,99.90
2023-04-24T02:46:18.667Z,99.90
2023-04-24T02:48:45.488Z,99.90
2023-04-24T02:51:14.492Z,99.90
2023-04-24T02:53:41.571Z,99.90
2023-04-24T02:56:13.191Z,99.90
2023-04-24T02:58:39.899Z,99.90
2023-04-24T03:01:11.032Z,99.90
2023-04-24T03:03:41.242Z,99.90
2023-04-24T03:06:08.958Z,99.90
2023-04-24T03:08:36.239Z,99.90
2023-04-24T03:11:07.261Z,99.90
2023-04-24T03:13:33.948Z,99.90
2023-04-24T03:16:00.661Z,99.90
2023-04-24T03:20:54.488Z,99.90
2023-04-24T03:23:21.130Z,99.90
2023-04-24T03:28:18.579Z,99.90
2023-04-24T03:30:45.273Z,99.90
2023-04-24T03:33:12.362Z,99.90
2023-04-24T03:35:39.489Z,99.90
2023-04-24T03:38:08.361Z,99.90
2023-04-24T03:40:35.671Z,99.90
2023-04-24T03:43:04.774Z,99.90
2023-04-24T03:45:33.976Z,99.90
2023-04-24T03:48:03.030Z,99.90
2023-04-24T03:50:30.216Z,99.90
2023-04-24T03:52:59.299Z,99.90
2023-04-24T03:55:26.137Z,99.90
2023-04-24T03:57:52.801Z,99.90
2023-04-24T04:00:22.058Z,99.90
2023-04-24T04:02:49.260Z,99.90
2023-04-24T04:05:18.448Z,99.90
2023-04-24T04:07:49.717Z,99.90
2023-04-24T04:10:18.049Z,99.90
2023-04-24T04:12:44.720Z,99.90
2023-04-24T04:15:11.654Z,99.90
2023-04-24T04:17:39.172Z,99.90
2023-04-24T04:20:12.793Z,99.90
2023-04-24T04:22:44.307Z,99.90
2023-04-24T04:25:12.444Z,99.90
2023-04-24T04:30:10.761Z,99.90
2023-04-24T04:32:39.858Z,99.90
2023-04-24T04:35:07.123Z,99.90
2023-04-24T04:37:36.919Z,99.90
2023-04-24T04:40:12.560Z,99.90
2023-04-24T04:42:46.831Z,99.90
2023-04-24T04:45:13.577Z,99.90
2023-04-24T04:47:42.875Z,99.90
2023-04-24T04:50:12.317Z,99.90
2023-04-24T04:52:39.296Z,99.90
2023-04-24T04:55:06.631Z,99.90
2023-04-24T04:57:33.326Z,99.90
2023-04-24T05:00:00.007Z,99.90
2023-04-24T05:02:29.470Z,99.90
2023-04-24T05:07:28.285Z,99.90
2023-04-24T05:09:57.324Z,99.90
2023-04-24T05:12:24.035Z,99.90
2023-04-24T05:19:46.091Z,99.90
2023-04-24T05:22:13.254Z,99.90
2023-04-24T05:24:40.130Z,99.90
2023-04-24T05:27:06.983Z,99.90
2023-04-24T05:32:03.455Z,99.90
2023-04-24T05:34:30.436Z,99.90
2023-04-24T05:37:00.496Z,99.90
2023-04-24T05:39:29.788Z,99.90
2023-04-24T05:41:59.100Z,99.90
2023-04-24T05:44:28.317Z,99.90
2023-04-24T05:46:59.772Z,99.90
2023-04-24T05:49:26.542Z,99.90
2023-04-24T05:51:55.530Z,99.90
2023-04-24T05:54:24.645Z,99.90
2023-04-24T05:56:51.890Z,99.90
2023-04-24T05:59:18.697Z,99.90
2023-04-24T06:04:15.805Z,99.90
2023-04-24T06:06:44.928Z,99.90
2023-04-24T06:09:12.055Z,99.90
2023-04-24T06:14:06.072Z,99.90
2023-04-24T06:16:32.812Z,99.90
2023-04-24T06:19:04.350Z,99.90
2023-04-24T06:21:33.680Z,99.90
2023-04-24T06:24:03.285Z,99.90
2023-04-24T06:26:30.218Z,99.90
2023-04-24T06:29:00.490Z,99.90
2023-04-24T06:31:29.517Z,99.90
2023-04-24T06:33:58.753Z,99.90
2023-04-24T06:36:25.409Z,99.90
2023-04-24T06:38:52.230Z,99.90
2023-04-24T06:41:21.705Z,99.90
2023-04-24T06:43:48.389Z,99.90
2023-04-24T06:46:15.282Z,99.90
2023-04-24T06:48:42.104Z,99.90
2023-04-24T06:51:08.994Z,99.90
2023-04-24T06:53:38.335Z,99.90
2023-04-24T06:56:07.433Z,99.90
2023-04-24T06:58:34.165Z,99.90
2023-04-24T07:01:03.134Z,99.90
2023-04-24T07:03:30.043Z,99.90
2023-04-24T07:05:59.208Z,99.90
2023-04-24T07:08:26.419Z,99.90
2023-04-24T07:10:53.176Z,99.90
2023-04-24T07:13:22.874Z,99.90
2023-04-24T07:15:51.995Z,99.90
2023-04-24T07:18:18.993Z,99.90
2023-04-24T07:20:47.967Z,99.90
2023-04-24T07:25:46.260Z,99.90
2023-04-24T07:28:13.633Z,99.90
2023-04-24T07:30:40.276Z,99.90
2023-04-24T07:33:09.490Z,99.90
2023-04-24T07:35:40.927Z,99.90
2023-04-24T07:38:08.005Z,99.90
2023-04-24T07:40:37.091Z,99.90
2023-04-24T07:43:06.641Z,99.90
2023-04-24T07:45:38.152Z,99.90
2023-04-24T07:48:05.224Z,99.90
2023-04-24T07:50:32.236Z,99.90
2023-04-24T07:52:58.990Z,99.90
2023-04-24T07:55:30.590Z,99.90
2023-04-24T07:57:57.577Z,99.90
2023-04-24T08:00:24.335Z,99.10
2023-04-24T08:02:51.170Z,98.50
2023-04-24T08:05:18.405Z,97.80
2023-04-24T08:07:47.134Z,97.80
2023-04-24T08:15:11.320Z,94.80
2023-04-24T08:17:38.050Z,94.40
2023-04-24T08:20:06.241Z,94.40
2023-04-24T08:25:03.102Z,94.30
2023-04-24T08:27:31.999Z,94.90
2023-04-24T08:29:59.792Z,94.90
2023-04-24T08:32:29.841Z,94.30
2023-04-24T08:35:02.639Z,93.50
2023-04-24T08:37:29.586Z,93.90
2023-04-24T08:39:56.460Z,93.90
2023-04-24T08:42:25.686Z,94.30
2023-04-24T08:44:52.445Z,94.30
2023-04-24T08:47:21.215Z,93.80
2023-04-24T08:49:52.437Z,94.00
2023-04-24T08:52:24.261Z,92.50
2023-04-24T08:54:51.344Z,91.10
2023-04-24T08:57:20.832Z,90.50
2023-04-24T08:59:48.161Z,89.10
2023-04-24T09:02:16.032Z,89.70
2023-04-24T09:04:45.154Z,86.90
2023-04-24T09:07:15.181Z,85.90
2023-04-24T09:09:44.951Z,86.30
2023-04-24T09:14:43.567Z,82.30
2023-04-24T09:17:13.154Z,80.20
2023-04-24T09:19:42.305Z,78.10
2023-04-24T09:22:10.551Z,79.10
2023-04-24T09:24:37.471Z,76.60
2023-04-24T09:27:04.960Z,76.50
2023-04-24T09:29:33.720Z,74.10
2023-04-24T09:32:18.549Z,73.10
2023-04-24T09:34:48.812Z,72.10
2023-04-24T09:37:31.462Z,71.00
2023-04-24T09:40:16.460Z,72.20
2023-04-24T09:43:02.133Z,72.40
2023-04-24T09:45:37.033Z,72.20
2023-04-24T09:48:04.395Z,73.20
2023-04-24T09:50:38.203Z,71.90
2023-04-24T09:53:08.268Z,70.20
2023-04-24T09:55:49.421Z,71.10
2023-04-24T09:58:16.349Z,71.30
2023-04-24T10:00:43.051Z,72.90
2023-04-24T10:03:12.417Z,72.50
2023-04-24T10:05:44.496Z,71.10
2023-04-24T10:08:13.323Z,70.10
2023-04-24T10:10:46.978Z,70.60
2023-04-24T10:13:18.153Z,70.50
2023-04-24T10:15:45.690Z,69.90
2023-04-24T10:18:12.483Z,70.30
2023-04-24T10:20:43.947Z,70.00
2023-04-24T10:23:13.408Z,71.00
2023-04-24T10:25:42.409Z,69.70
2023-04-24T10:28:13.222Z,70.20
2023-04-24T10:30:43.622Z,69.90
2023-04-24T10:33:15.020Z,70.70
2023-04-24T10:35:50.142Z,70.60
2023-04-24T10:38:25.814Z,69.90
2023-04-24T10:40:52.718Z,69.10
2023-04-24T10:43:22.430Z,68.90
2023-04-24T10:46:06.565Z,68.60
2023-04-24T10:48:36.958Z,69.70
2023-04-24T10:51:03.797Z,68.50
2023-04-24T10:53:31.614Z,68.90
2023-04-24T10:56:10.671Z,70.10
2023-04-24T10:58:53.299Z,69.20
2023-04-24T11:01:31.716Z,69.10
2023-04-24T11:04:04.919Z,69.00
2023-04-24T11:06:37.076Z,67.90
2023-04-24T11:09:14.061Z,68.20
2023-04-24T11:11:46.369Z,69.30
2023-04-24T11:14:16.307Z,69.30
2023-04-24T11:16:45.567Z,68.10
2023-04-24T11:19:16.233Z,68.40
2023-04-24T11:21:48.095Z,68.40
2023-04-24T11:24:39.260Z,69.90
2023-04-24T11:29:42.215Z,69.00
2023-04-24T11:32:30.361Z,69.20
2023-04-24T11:35:10.200Z,68.00
2023-04-24T11:37:41.412Z,67.00
2023-04-24T11:40:16.347Z,67.30
2023-04-24T11:42:46.817Z,66.90
2023-04-24T11:45:19.131Z,68.20
2023-04-24T11:47:46.319Z,66.70
2023-04-24T11:50:17.795Z,67.60
2023-04-24T11:52:46.569Z,66.10
2023-04-24T11:55:16.272Z,66.60
2023-04-24T11:57:57.352Z,66.10
2023-04-24T12:00:29.658Z,66.30
2023-04-24T12:03:14.876Z,66.80
2023-04-24T12:08:11.911Z,68.10
2023-04-24T12:10:38.702Z,68.10
2023-04-24T12:13:06.458Z,69.10
2023-04-24T12:15:35.549Z,69.50
2023-04-24T12:18:05.042Z,69.10
2023-04-24T12:20:33.563Z,69.40
2023-04-24T12:23:04.147Z,68.70
2023-04-24T12:25:33.298Z,66.50
2023-04-24T12:28:06.587Z,66.70
2023-04-24T12:30:41.212Z,66.40
2023-04-24T12:33:12.694Z,66.40
2023-04-24T12:35:44.022Z,66.60
2023-04-24T12:38:16.319Z,67.50
2023-04-24T12:40:44.464Z,67.50
2023-04-24T12:43:19.739Z,67.90
2023-04-24T12:45:51.770Z,68.20
2023-04-24T12:48:18.635Z,67.90
2023-04-24T12:50:46.800Z,68.20
2023-04-24T12:55:41.409Z,67.20
2023-04-24T12:58:08.309Z,67.00
2023-04-24T13:00:35.268Z,67.10
2023-04-24T13:03:07.140Z,67.60
2023-04-24T13:05:34.274Z,67.20
2023-04-24T13:08:03.578Z,67.00
2023-04-24T13:10:30.325Z,67.00
2023-04-24T13:20:21.296Z,68.00
2023-04-24T13:22:48.028Z,68.80
2023-04-24T13:25:18.176Z,68.00
2023-04-24T13:27:45.155Z,67.80
2023-04-24T13:30:14.583Z,67.80
2023-04-24T13:32:43.838Z,68.60
2023-04-24T13:35:10.693Z,68.40
2023-04-24T13:40:07.963Z,68.00
2023-04-24T13:42:37.256Z,67.90
2023-04-24T13:45:21.199Z,69.70
2023-04-24T13:47:52.304Z,68.30
2023-04-24T13:50:19.432Z,70.60
2023-04-24T13:52:46.234Z,70.60
2023-04-24T13:55:15.480Z,70.30
2023-04-24T13:57:44.747Z,70.70
2023-04-24T14:00:12.031Z,71.50
2023-04-24T14:02:41.423Z,70.80
2023-04-24T14:05:12.305Z,70.30
2023-04-24T14:10:07.099Z,69.60
2023-04-24T14:12:36.207Z,69.70
2023-04-24T14:15:03.031Z,70.20
2023-04-24T14:17:29.755Z,69.90
2023-04-24T14:19:57.650Z,67.80
2023-04-24T14:22:24.377Z,66.80
2023-04-24T14:24:53.463Z,66.20
2023-04-24T14:27:20.176Z,66.10
2023-04-24T14:29:51.211Z,65.80
2023-04-24T14:32:17.920Z,65.00
2023-04-24T14:37:11.915Z,64.60
2023-04-24T14:39:41.111Z,65.10
2023-04-24T14:42:08.237Z,65.30
2023-04-24T14:44:37.182Z,64.70
2023-04-24T14:47:03.977Z,65.30
2023-04-24T14:49:30.746Z,65.40
2023-04-24T14:51:57.479Z,65.80
2023-04-24T14:54:24.380Z,65.20
2023-04-24T14:56:55.084Z,65.60
2023-04-24T14:59:21.791Z,65.90
2023-04-24T15:02:04.938Z,66.10
2023-04-24T15:04:38.231Z,65.50
2023-04-24T15:07:07.532Z,66.20
2023-04-24T15:09:34.466Z,65.90
2023-04-24T15:12:02.713Z,65.40
2023-04-24T15:14:30.664Z,65.30
2023-04-24T15:16:59.543Z,65.40
2023-04-24T15:19:26.275Z,64.50
2023-04-24T15:21:53.082Z,64.00
2023-04-24T15:24:22.071Z,64.70
2023-04-24T15:26:48.901Z,64.50
2023-04-24T15:29:20.019Z,64.80
2023-04-24T15:31:48.875Z,65.10
2023-04-24T15:34:15.750Z,64.90
2023-04-24T15:36:47.195Z,65.00
2023-04-24T15:39:14.293Z,63.20
2023-04-24T15:41:41.003Z,65.10
2023-04-24T15:44:12.415Z,64.60
2023-04-24T15:46:39.283Z,63.90
2023-04-24T15:49:11.434Z,64.10
2023-04-24T15:51:38.109Z,65.20
2023-04-24T15:54:04.936Z,65.50
2023-04-24T15:56:31.799Z,66.30
2023-04-24T16:01:27.950Z,64.60
2023-04-24T16:03:57.334Z,66.60
2023-04-24T16:06:24.163Z,67.80
2023-04-24T16:08:51.160Z,68.40
2023-04-24T16:11:20.567Z,67.10
2023-04-24T16:13:49.577Z,67.30
2023-04-24T16:16:16.321Z,67.90
2023-04-24T16:18:43.103Z,67.30
2023-04-24T16:21:14.322Z,68.20
2023-04-24T16:23:45.799Z,68.60
2023-04-24T16:26:12.602Z,68.90
2023-04-24T16:28:39.713Z,69.10
2023-04-24T16:31:08.676Z,68.50
2023-04-24T16:33:37.838Z,67.90
2023-04-24T16:36:08.816Z,67.30
2023-04-24T16:38:36.014Z,65.00
2023-04-24T16:41:02.727Z,64.80
2023-04-24T16:43:29.397Z,66.00
2023-04-24T16:46:01.120Z,65.90
2023-04-24T16:48:32.875Z,65.70
2023-04-24T16:51:02.146Z,66.30
2023-04-24T16:53:28.820Z,66.30
2023-04-24T16:55:55.536Z,66.10
2023-04-24T16:58:24.369Z,66.20
2023-04-24T17:00:53.363Z,66.40
2023-04-24T17:03:20.447Z,66.00
2023-04-24T17:05:47.339Z,67.20
2023-04-24T17:08:14.422Z,66.00
2023-04-24T17:10:41.260Z,65.60
2023-04-24T17:13:08.848Z,66.30
2023-04-24T17:15:35.935Z,66.50
2023-04-24T17:18:03.225Z,67.30
2023-04-24T17:20:30.473Z,67.30
2023-04-24T17:25:24.794Z,68.90
2023-04-24T17:27:51.613Z,69.20
2023-04-24T17:30:18.336Z,69.80
2023-04-24T17:32:47.345Z,71.10
2023-04-24T17:35:14.129Z,70.50
2023-04-24T17:37:41.030Z,70.80
2023-04-24T17:40:08.380Z,71.60
2023-04-24T17:42:41.285Z,72.50
2023-04-24T17:45:08.677Z,71.80
2023-04-24T17:47:41.016Z,72.40
2023-04-24T17:50:08.075Z,72.50
2023-04-24T17:55:04.534Z,72.60
2023-04-24T17:57:31.580Z,74.00
2023-04-24T17:59:58.295Z,73.80
2023-04-24T18:02:27.305Z,75.10
2023-04-24T18:04:56.406Z,75.10
2023-04-24T18:07:23.104Z,75.40
2023-04-24T18:09:52.568Z,76.00
2023-04-24T18:12:22.967Z,76.20
2023-04-24T18:14:50.454Z,76.50
2023-04-24T18:17:19.686Z,77.00
2023-04-24T18:19:46.428Z,76.60
2023-04-24T18:22:13.399Z,77.60
2023-04-24T18:24:42.597Z,77.40
2023-04-24T18:29:38.846Z,78.00
2023-04-24T18:32:07.633Z,79.30
2023-04-24T18:34:34.386Z,78.70
2023-04-24T18:37:03.646Z,79.00
2023-04-24T18:39:30.786Z,79.20
2023-04-24T18:42:00.123Z,80.60
2023-04-24T18:44:27.003Z,80.70
2023-04-24T18:49:21.076Z,80.60
2023-04-24T18:51:53.589Z,81.30
2023-04-24T18:54:21.432Z,81.70
2023-04-24T18:56:48.166Z,81.60
2023-04-24T18:59:17.729Z,82.00
2023-04-24T19:01:44.711Z,82.00
2023-04-24T19:04:14.129Z,82.50
2023-04-24T19:06:43.337Z,82.10
2023-04-24T19:09:10.037Z,82.60
2023-04-24T19:11:37.373Z,83.80
2023-04-24T19:14:07.430Z,83.00
2023-04-24T19:16:34.303Z,84.10
2023-04-24T19:19:01.563Z,84.90
2023-04-24T19:21:29.440Z,84.50
2023-04-24T19:23:58.766Z,85.00
2023-04-24T19:26:31.512Z,85.40
2023-04-24T19:31:28.926Z,85.40
2023-04-24T19:33:56.093Z,85.90
2023-04-24T19:36:23.926Z,86.40
2023-04-24T19:38:51.153Z,86.80
2023-04-24T19:41:20.373Z,86.70
2023-04-24T19:43:50.545Z,87.60
2023-04-24T19:46:17.659Z,88.10
2023-04-24T19:48:44.541Z,88.30
2023-04-24T19:51:11.464Z,89.10
2023-04-24T19:53:41.207Z,89.50
2023-04-24T19:56:08.863Z,89.70
2023-04-24T19:58:37.970Z,90.00
2023-04-24T20:03:34.364Z,90.00
2023-04-24T20:06:04.124Z,90.50
2023-04-24T20:08:30.934Z,90.80
2023-04-24T20:10:58.217Z,90.80
2023-04-24T20:13:28.251Z,90.80
2023-04-24T20:15:55.169Z,91.00
2023-04-24T20:18:26.828Z,91.10
2023-04-24T20:20:56.841Z,91.10
2023-04-24T20:23:23.630Z,91.20
2023-04-24T20:25:50.363Z,91.10
2023-04-24T20:28:19.436Z,91.20
2023-04-24T20:30:46.155Z,91.50
2023-04-24T20:33:15.606Z,91.40
2023-04-24T20:35:42.251Z,91.70
2023-04-24T20:38:11.105Z,91.70
2023-04-24T20:40:56.227Z,91.80
2023-04-24T20:43:28.910Z,91.90
2023-04-24T20:46:00.842Z,91.90
2023-04-24T20:48:27.652Z,92.10
2023-04-24T20:50:57.325Z,92.10
2023-04-24T20:53:24.193Z,92.30
2023-04-24T20:55:51.041Z,92.60
2023-04-24T20:58:24.063Z,92.20
2023-04-24T21:00:53.119Z,92.50
2023-04-24T21:03:20.260Z,92.80
2023-04-24T21:05:47.119Z,92.90
2023-04-24T21:08:14.050Z,93.10
2023-04-24T21:10:41.078Z,93.50
2023-04-24T21:13:09.976Z,93.70
2023-04-24T21:15:36.982Z,93.90
2023-04-24T21:18:04.378Z,93.90
2023-04-24T21:20:31.113Z,94.50
2023-04-24T21:22:57.831Z,94.80
2023-04-24T21:25:25.082Z,95.10
2023-04-24T21:27:51.920Z,95.30
2023-04-24T21:30:18.977Z,95.70
2023-04-24T21:35:12.959Z,95.50
2023-04-24T21:37:39.902Z,95.90
2023-04-24T21:40:07.979Z,96.20
2023-04-24T21:42:34.815Z,96.30
2023-04-24T21:45:09.696Z,96.60
2023-04-24T21:47:36.489Z,96.90
2023-04-24T21:50:08.426Z,97.00
2023-04-24T21:52:37.668Z,97.20
2023-04-24T21:55:07.025Z,97.30
2023-04-24T21:57:33.942Z,97.40
2023-04-24T22:00:03.551Z,97.00
2023-04-24T22:02:30.360Z,96.70
2023-04-24T22:05:03.239Z,96.60
2023-04-24T22:07:36.495Z,96.70
2023-04-24T22:10:06.527Z,96.60
2023-04-24T22:12:33.230Z,96.60
2023-04-24T22:15:03.903Z,96.60
2023-04-24T22:17:30.691Z,96.70
2023-04-24T22:19:57.492Z,96.70
2023-04-24T22:22:24.230Z,96.90
2023-04-24T22:24:51.145Z,97.00
2023-04-24T22:27:17.928Z,97.20
2023-04-24T22:29:44.636Z,97.50
2023-04-24T22:32:11.444Z,97.70
2023-04-24T22:34:38.133Z,98.00
2023-04-24T22:37:08.064Z,98.30
2023-04-24T22:39:37.143Z,98.60
2023-04-24T22:42:04.079Z,99.10
2023-04-24T22:44:30.884Z,99.20
2023-04-24T22:46:57.937Z,99.40
2023-04-24T22:49:27.299Z,99.70
2023-04-24T22:51:57.720Z,99.90
2023-04-24T22:54:27.599Z,99.90
2023-04-24T22:56:59.962Z,99.90
2023-04-24T22:59:26.802Z,99.90
2023-04-24T23:01:56.029Z,99.90
2023-04-24T23:04:23.013Z,99.90
2023-04-24T23:06:50.191Z,99.90
2023-04-24T23:09:19.114Z,99.90
2023-04-24T23:11:45.954Z,99.90
2023-04-24T23:14:12.774Z,99.90
2023-04-24T23:16:41.024Z,99.90
2023-04-24T23:19:07.831Z,99.90
2023-04-24T23:21:36.933Z,99.90
2023-04-24T23:24:03.693Z,99.90
2023-04-24T23:26:30.368Z,99.90
2023-04-24T23:28:57.107Z,99.90
2023-04-24T23:31:24.046Z,99.90
2023-04-24T23:33:55.476Z,99.90
2023-04-24T23:36:22.264Z,99.90
2023-04-24T23:38:50.689Z,99.90
2023-04-24T23:41:19.362Z,99.90
2023-04-24T23:43:46.254Z,99.90
2023-04-24T23:46:13.329Z,99.90
2023-04-24T23:48:40.179Z,99.90
2023-04-24T23:51:12.130Z,99.90
2023-04-24T23:53:39.000Z,99.90
2023-04-24T23:56:06.126Z,99.90
2023-04-24T23:58:32.921Z,99.90
